Terminal Aerodrome Forecast
Issued by NWS Green Bay, WI

Home | Current Version | Previous Version | Graphics & Text | Print | Product List | Glossary On
Versions: 1 2 3 4 5 6 7 8 9 10 11 12 13 14 15 16 17 18 19 20 21 22 23 24
000
FTUS43 KGRB 032336
TAFGRB
TAF
KGRB 032336Z 0400/0424 00000KT P6SM OVC025
     FM040200 00000KT P6SM BKN035 OVC080
     FM041400 17005KT P6SM OVC020 PROB30 0415/0416 4SM -SN OVC012
     FM041600 16006KT 2SM -SN OVC012
     FM041800 16007KT 1 1/2SM -SN OVC008
      TEMPO 0420/0424 3/4SM -SN OVC004=

USA.gov is the U.S. government's official web portal to all federal, state and local government web resources and services.